createdAt,value
2022-07-29T00:01:20.573Z,99765.84
2022-07-29T00:03:52.784Z,99764.42
2022-07-29T00:06:25.406Z,99772.11
2022-07-29T00:08:57.380Z,99775.32
2022-07-29T00:11:29.406Z,99784.55
2022-07-29T00:14:01.540Z,99777.80
2022-07-29T00:16:33.773Z,99781.27
2022-07-29T00:19:07.904Z,99776.28
2022-07-29T00:21:40.524Z,99779.60
2022-07-29T00:24:13.074Z,99775.90
2022-07-29T00:26:45.315Z,99781.77
2022-07-29T00:29:33.594Z,99790.78
2022-07-29T00:31:51.667Z,99794.61
2022-07-29T00:34:41.068Z,99785.00
2022-07-29T00:37:13.046Z,99782.38
2022-07-29T00:39:45.364Z,99790.38
2022-07-29T00:42:17.690Z,99783.41
2022-07-29T00:44:50.042Z,99793.77
2022-07-29T00:47:22.266Z,99790.89
2022-07-29T00:49:54.270Z,99798.62
2022-07-29T00:52:26.784Z,99795.50
2022-07-29T00:54:59.382Z,99802.76
2022-07-29T00:57:33.604Z,99806.23
2022-07-29T01:00:07.623Z,99803.47
2022-07-29T01:02:39.730Z,99813.38
2022-07-29T01:05:14.183Z,99809.63
2022-07-29T01:07:48.324Z,99813.73
2022-07-29T01:10:22.334Z,99809.86
2022-07-29T01:12:56.994Z,99817.23
2022-07-29T01:15:30.806Z,99814.93
2022-07-29T01:18:22.275Z,99819.05
2022-07-29T01:21:15.196Z,99829.53
2022-07-29T01:24:20.200Z,99821.81
2022-07-29T01:26:58.706Z,99815.91
2022-07-29T01:29:42.610Z,99818.45
2022-07-29T01:32:34.264Z,99821.56
2022-07-29T01:35:09.219Z,99828.17
2022-07-29T01:37:46.902Z,99819.03
2022-07-29T01:40:39.747Z,99821.31
2022-07-29T01:43:14.539Z,99818.89
2022-07-29T01:45:52.528Z,99822.73
2022-07-29T01:48:27.347Z,99823.59
2022-07-29T01:51:02.373Z,99826.44
2022-07-29T01:53:38.309Z,99819.71
2022-07-29T01:56:12.442Z,99824.67
2022-07-29T01:58:46.975Z,99826.24
2022-07-29T02:01:21.029Z,99825.98
2022-07-29T02:03:55.152Z,99820.45
2022-07-29T02:06:29.351Z,99821.42
2022-07-29T02:09:02.471Z,99825.02
2022-07-29T02:11:37.678Z,99828.18
2022-07-29T02:14:11.819Z,99831.77
2022-07-29T02:16:45.929Z,99837.81
2022-07-29T02:19:20.618Z,99831.42
2022-07-29T02:21:55.494Z,99841.17
2022-07-29T02:24:28.752Z,99828.78
2022-07-29T02:27:04.369Z,99837.09
2022-07-29T02:29:39.348Z,99835.91
2022-07-29T02:32:14.714Z,99835.08
2022-07-29T02:34:49.036Z,99833.14
2022-07-29T02:37:22.114Z,99831.08
2022-07-29T02:39:56.222Z,99840.48
2022-07-29T02:42:30.426Z,99839.91
2022-07-29T02:45:02.392Z,99835.20
2022-07-29T02:47:41.418Z,99839.19
2022-07-29T02:50:17.181Z,99834.36
2022-07-29T02:53:12.977Z,99842.67
2022-07-29T02:56:00.115Z,99839.56
2022-07-29T02:58:34.802Z,99832.89
2022-07-29T03:01:07.500Z,99832.54
2022-07-29T03:03:41.711Z,99845.07
2022-07-29T03:06:28.823Z,99830.47
2022-07-29T03:08:51.653Z,99830.23
2022-07-29T03:11:49.076Z,99827.34
2022-07-29T03:13:58.576Z,99838.22
2022-07-29T03:16:31.795Z,99833.26
2022-07-29T03:19:05.326Z,99840.95
2022-07-29T03:21:37.527Z,99830.55
2022-07-29T03:24:10.971Z,99834.92
2022-07-29T03:26:43.671Z,99832.11
2022-07-29T03:29:15.867Z,99826.19
2022-07-29T03:31:49.800Z,99833.52
2022-07-29T03:34:23.486Z,99833.52
2022-07-29T03:36:55.547Z,99832.30
2022-07-29T03:39:29.771Z,99831.81
2022-07-29T03:42:03.057Z,99833.09
2022-07-29T03:44:36.814Z,99827.16
2022-07-29T03:47:11.440Z,99830.84
2022-07-29T03:49:44.343Z,99829.12
2022-07-29T03:52:16.815Z,99823.88
2022-07-29T03:54:50.215Z,99835.82
2022-07-29T03:57:25.463Z,99836.02
2022-07-29T03:59:58.395Z,99839.73
2022-07-29T04:02:30.936Z,99830.26
2022-07-29T04:05:03.374Z,99833.23
2022-07-29T04:07:35.356Z,99836.08
2022-07-29T04:10:08.604Z,99842.83
2022-07-29T04:12:40.913Z,99841.30
2022-07-29T04:15:14.458Z,99845.12
2022-07-29T04:17:46.742Z,99842.64
2022-07-29T04:20:20.820Z,99841.66
2022-07-29T04:22:53.431Z,99844.37
2022-07-29T04:25:25.847Z,99848.31
2022-07-29T04:28:04.159Z,99838.36
2022-07-29T04:30:37.899Z,99844.74
2022-07-29T04:33:10.604Z,99850.06
2022-07-29T04:35:50.031Z,99846.29
2022-07-29T04:38:17.518Z,99851.48
2022-07-29T04:40:50.062Z,99857.67
2022-07-29T04:43:23.428Z,99856.25
2022-07-29T04:45:56.260Z,99859.77
2022-07-29T04:48:29.313Z,99867.50
2022-07-29T04:51:01.806Z,99870.03
2022-07-29T04:53:34.107Z,99868.06
2022-07-29T04:56:07.121Z,99861.62
2022-07-29T04:58:39.398Z,99866.42
2022-07-29T05:01:11.922Z,99858.13
2022-07-29T05:03:44.123Z,99855.79
2022-07-29T05:06:16.663Z,99865.48
2022-07-29T05:08:48.751Z,99866.73
2022-07-29T05:11:22.503Z,99865.64
2022-07-29T05:13:54.960Z,99859.88
2022-07-29T05:16:27.547Z,99863.09
2022-07-29T05:19:00.095Z,99871.25
2022-07-29T05:21:33.025Z,99865.10
2022-07-29T05:24:07.128Z,99873.83
2022-07-29T05:26:39.804Z,99868.77
2022-07-29T05:29:44.297Z,99880.55
2022-07-29T05:31:45.986Z,99864.57
2022-07-29T05:34:19.170Z,99865.93
2022-07-29T05:36:52.026Z,99865.78
2022-07-29T05:39:47.487Z,99864.23
2022-07-29T05:41:58.465Z,99860.55
2022-07-29T05:44:30.444Z,99857.19
2022-07-29T05:47:02.612Z,99853.48
2022-07-29T05:49:35.163Z,99856.62
2022-07-29T05:52:07.348Z,99855.63
2022-07-29T05:54:39.542Z,99852.35
2022-07-29T05:57:13.910Z,99858.06
2022-07-29T05:59:46.058Z,99854.21
2022-07-29T06:02:19.324Z,99854.13
2022-07-29T06:04:52.808Z,99856.28
2022-07-29T06:07:25.656Z,99856.28
2022-07-29T06:09:57.834Z,99859.23
2022-07-29T06:12:30.019Z,99848.63
2022-07-29T06:15:02.291Z,99857.14
2022-07-29T06:17:34.823Z,99838.66
2022-07-29T06:20:10.733Z,99851.11
2022-07-29T06:22:42.327Z,99852.48
2022-07-29T06:25:14.795Z,99841.37
2022-07-29T06:27:47.124Z,99849.55
2022-07-29T06:30:19.292Z,99850.07
2022-07-29T06:32:51.647Z,99847.84
2022-07-29T06:35:38.454Z,99837.55
2022-07-29T06:37:59.525Z,99847.00
2022-07-29T06:40:49.474Z,99836.38
2022-07-29T06:43:21.891Z,99835.28
2022-07-29T06:45:55.375Z,99834.43
2022-07-29T06:48:27.819Z,99837.96
2022-07-29T06:51:00.212Z,99840.25
2022-07-29T06:53:33.520Z,99830.78
2022-07-29T06:56:09.296Z,99835.67
2022-07-29T06:58:42.231Z,99827.09
2022-07-29T07:01:14.505Z,99831.94
2022-07-29T07:03:47.424Z,99832.86
2022-07-29T07:06:19.993Z,99832.91
2022-07-29T07:08:52.752Z,99828.73
2022-07-29T07:11:25.504Z,99832.61
2022-07-29T07:14:02.688Z,99836.44
2022-07-29T07:16:32.764Z,99839.95
2022-07-29T07:19:05.922Z,99840.13
2022-07-29T07:21:38.333Z,99838.96
2022-07-29T07:24:10.855Z,99841.66
2022-07-29T07:26:42.934Z,99845.42
2022-07-29T07:29:15.801Z,99848.47
2022-07-29T07:31:48.403Z,99851.00
2022-07-29T07:34:28.391Z,99849.13
2022-07-29T07:36:55.207Z,99851.82
2022-07-29T07:39:27.890Z,99850.81
2022-07-29T07:42:01.043Z,99853.03
2022-07-29T07:44:42.413Z,99855.20
2022-07-29T07:47:08.780Z,99852.84
2022-07-29T07:49:41.901Z,99850.31
2022-07-29T07:52:18.310Z,99844.95
2022-07-29T07:54:51.649Z,99849.83
2022-07-29T07:57:24.059Z,99851.83
2022-07-29T07:59:56.470Z,99855.87
2022-07-29T08:02:29.372Z,99856.73
2022-07-29T08:05:01.693Z,99859.56
2022-07-29T08:07:34.276Z,99860.38
2022-07-29T08:10:07.819Z,99863.91
2022-07-29T08:12:40.294Z,99856.02
2022-07-29T08:15:12.729Z,99860.05
2022-07-29T08:17:45.047Z,99856.37
2022-07-29T08:20:17.254Z,99861.73
2022-07-29T08:22:49.841Z,99862.08
2022-07-29T08:25:22.515Z,99856.19
2022-07-29T08:27:54.845Z,99861.39
2022-07-29T08:30:27.496Z,99859.22
2022-07-29T08:33:00.672Z,99853.34
2022-07-29T08:35:35.727Z,99855.14
2022-07-29T08:38:07.757Z,99846.72
2022-07-29T08:40:39.897Z,99850.08
2022-07-29T08:43:12.117Z,99851.44
2022-07-29T08:45:50.294Z,99850.43
2022-07-29T08:48:24.893Z,99854.05
2022-07-29T08:50:57.332Z,99840.08
2022-07-29T08:53:30.559Z,99855.33
2022-07-29T08:56:04.593Z,99837.31
2022-07-29T08:58:38.342Z,99848.34
2022-07-29T09:01:13.907Z,99852.08
2022-07-29T09:03:48.508Z,99850.43
2022-07-29T09:06:23.018Z,99853.94
2022-07-29T09:08:56.599Z,99842.39
2022-07-29T09:11:29.728Z,99847.08
2022-07-29T09:14:01.752Z,99853.45
2022-07-29T09:16:54.378Z,99850.03
2022-07-29T09:19:35.919Z,99844.12
2022-07-29T09:22:11.592Z,99843.88
2022-07-29T09:24:49.231Z,99839.41
2022-07-29T09:27:28.262Z,99853.88
2022-07-29T09:30:11.223Z,99847.59
2022-07-29T09:33:03.891Z,99841.50
2022-07-29T09:35:36.508Z,99844.39
2022-07-29T09:38:16.150Z,99851.41
2022-07-29T09:40:51.587Z,99847.63
2022-07-29T09:43:23.654Z,99849.22
2022-07-29T09:45:56.097Z,99847.19
2022-07-29T09:48:28.862Z,99843.37
2022-07-29T09:51:03.244Z,99855.28
2022-07-29T09:53:38.166Z,99847.49
2022-07-29T09:56:11.779Z,99842.05
2022-07-29T09:58:44.354Z,99841.87
2022-07-29T10:01:17.090Z,99856.88
2022-07-29T10:03:56.131Z,99855.67
2022-07-29T10:06:28.237Z,99856.06
2022-07-29T10:09:14.135Z,99853.81
2022-07-29T10:11:49.978Z,99850.86
2022-07-29T10:14:22.586Z,99854.17
2022-07-29T10:16:55.390Z,99847.55
2022-07-29T10:19:27.966Z,99845.91
2022-07-29T10:22:02.125Z,99851.38
2022-07-29T10:24:35.341Z,99846.34
2022-07-29T10:27:10.442Z,99841.75
2022-07-29T10:29:42.768Z,99840.73
2022-07-29T10:32:33.606Z,99845.94
2022-07-29T10:35:15.146Z,99845.62
2022-07-29T10:38:19.068Z,99845.23
2022-07-29T10:41:24.119Z,99843.47
2022-07-29T10:44:16.247Z,99836.69
2022-07-29T10:46:47.253Z,99837.54
2022-07-29T10:49:30.397Z,99835.04
2022-07-29T10:52:12.190Z,99831.91
2022-07-29T10:54:51.265Z,99832.55
2022-07-29T10:57:52.518Z,99829.94
2022-07-29T11:00:14.295Z,99835.15
2022-07-29T11:02:50.631Z,99840.09
2022-07-29T11:05:24.472Z,99837.21
2022-07-29T11:08:21.106Z,99851.20
2022-07-29T11:10:56.598Z,99837.34
2022-07-29T11:13:52.388Z,99841.06
2022-07-29T11:16:25.709Z,99837.70
2022-07-29T11:19:26.477Z,99837.08
2022-07-29T11:22:05.411Z,99834.30
2022-07-29T11:24:33.444Z,99835.14
2022-07-29T11:27:23.228Z,99839.56
2022-07-29T11:29:58.625Z,99832.41
2022-07-29T11:32:44.845Z,99824.40
2022-07-29T11:35:38.556Z,99832.92
2022-07-29T11:38:27.902Z,99842.56
2022-07-29T11:41:27.155Z,99845.59
2022-07-29T11:44:02.252Z,99841.58
2022-07-29T11:46:53.933Z,99853.72
2022-07-29T11:49:32.035Z,99845.47
2022-07-29T11:52:04.094Z,99853.27
2022-07-29T11:54:38.824Z,99854.02
2022-07-29T11:57:11.870Z,99855.46
2022-07-29T11:59:46.058Z,99844.36
2022-07-29T12:02:36.411Z,99835.09
2022-07-29T12:04:55.628Z,99837.95
2022-07-29T12:07:36.317Z,99845.03
2022-07-29T12:10:11.653Z,99831.95
2022-07-29T12:12:44.298Z,99831.83
2022-07-29T12:15:22.257Z,99831.65
2022-07-29T12:17:55.237Z,99834.16
2022-07-29T12:20:30.691Z,99834.59
2022-07-29T12:23:06.372Z,99840.25
2022-07-29T12:25:38.695Z,99829.00
2022-07-29T12:28:14.374Z,99828.42
2022-07-29T12:30:52.591Z,99818.04
2022-07-29T12:33:28.522Z,99813.15
2022-07-29T12:36:07.321Z,99817.00
2022-07-29T12:38:38.256Z,99823.64
2022-07-29T12:41:10.832Z,99820.81
2022-07-29T12:43:45.798Z,99811.16
2022-07-29T12:46:18.569Z,99823.38
2022-07-29T12:48:54.942Z,99825.40
2022-07-29T12:51:37.667Z,99812.28
2022-07-29T12:54:12.175Z,99810.04
2022-07-29T12:56:46.384Z,99809.75
2022-07-29T12:59:19.386Z,99807.99
2022-07-29T13:01:53.054Z,99824.22
2022-07-29T13:04:31.883Z,99814.95
2022-07-29T13:07:07.501Z,99820.30
2022-07-29T13:09:42.328Z,99816.79
2022-07-29T13:12:16.509Z,99811.72
2022-07-29T13:14:50.867Z,99818.52
2022-07-29T13:17:24.999Z,99819.27
2022-07-29T13:20:13.253Z,99818.87
2022-07-29T13:22:46.705Z,99815.83
2022-07-29T13:25:33.328Z,99808.06
2022-07-29T13:28:05.937Z,99807.73
2022-07-29T13:30:38.674Z,99808.30
2022-07-29T13:33:12.969Z,99800.05
2022-07-29T13:35:45.253Z,99805.43
2022-07-29T13:38:18.297Z,99801.98
2022-07-29T13:40:52.298Z,99791.25
2022-07-29T13:43:24.454Z,99789.59
2022-07-29T13:45:57.671Z,99795.77
2022-07-29T13:48:30.348Z,99795.58
2022-07-29T13:51:02.804Z,99804.41
2022-07-29T13:53:35.863Z,99792.00
2022-07-29T13:56:08.290Z,99800.80
2022-07-29T13:58:40.267Z,99799.48
2022-07-29T14:01:12.801Z,99790.48
2022-07-29T14:03:45.830Z,99787.73
2022-07-29T14:06:18.404Z,99791.70
2022-07-29T14:08:52.210Z,99784.70
2022-07-29T14:11:24.965Z,99787.31
2022-07-29T14:13:57.621Z,99784.57
2022-07-29T14:16:30.032Z,99782.58
2022-07-29T14:19:02.283Z,99779.46
2022-07-29T14:21:35.777Z,99783.53
2022-07-29T14:24:17.756Z,99779.11
2022-07-29T14:26:46.278Z,99784.98
2022-07-29T14:29:19.105Z,99788.14
2022-07-29T14:31:51.279Z,99781.09
2022-07-29T14:34:23.883Z,99777.56
2022-07-29T14:36:56.538Z,99771.17
2022-07-29T14:39:31.908Z,99779.95
2022-07-29T14:42:02.651Z,99778.30
2022-07-29T14:44:34.808Z,99785.99
2022-07-29T14:47:08.240Z,99778.88
2022-07-29T14:49:40.828Z,99773.67
2022-07-29T14:52:13.482Z,99768.55
2022-07-29T14:54:45.954Z,99760.39
2022-07-29T14:57:18.940Z,99767.91
2022-07-29T14:59:51.729Z,99756.52
2022-07-29T15:02:40.080Z,99758.08
2022-07-29T15:04:58.575Z,99759.86
2022-07-29T15:07:31.375Z,99763.69
2022-07-29T15:10:05.428Z,99759.67
2022-07-29T15:12:41.685Z,99768.20
2022-07-29T15:15:15.197Z,99770.13
2022-07-29T15:17:47.433Z,99762.77
2022-07-29T15:20:20.604Z,99761.52
2022-07-29T15:22:52.830Z,99768.58
2022-07-29T15:25:28.313Z,99768.31
2022-07-29T15:28:02.219Z,99772.98
2022-07-29T15:30:35.110Z,99776.34
2022-07-29T15:33:09.191Z,99786.14
2022-07-29T15:35:41.778Z,99782.62
2022-07-29T15:38:14.256Z,99787.55
2022-07-29T15:40:47.551Z,99794.87
2022-07-29T15:43:19.924Z,99798.49
2022-07-29T15:46:10.198Z,99818.69
2022-07-29T15:48:43.159Z,99828.13
2022-07-29T15:51:15.698Z,99822.04
2022-07-29T15:53:53.618Z,99839.50
2022-07-29T15:56:22.115Z,99830.73
2022-07-29T15:58:54.860Z,99845.41
2022-07-29T16:01:27.474Z,99846.91
2022-07-29T16:04:00.001Z,99843.53
2022-07-29T16:06:32.356Z,99848.76
2022-07-29T16:09:04.705Z,99847.30
2022-07-29T16:11:37.144Z,99845.85
2022-07-29T16:14:11.184Z,99858.02
2022-07-29T16:16:43.625Z,99863.13
2022-07-29T16:19:15.963Z,99860.46
2022-07-29T16:21:48.432Z,99858.81
2022-07-29T16:24:20.793Z,99863.37
2022-07-29T16:26:53.177Z,99873.98
2022-07-29T16:29:25.990Z,99870.95
2022-07-29T16:31:58.201Z,99868.27
2022-07-29T16:34:30.681Z,99874.78
2022-07-29T16:37:03.461Z,99876.28
2022-07-29T16:39:35.717Z,99883.70
2022-07-29T16:42:08.413Z,99875.12
2022-07-29T16:44:40.843Z,99866.39
2022-07-29T16:47:13.373Z,99870.70
2022-07-29T16:49:45.928Z,99870.52
2022-07-29T16:52:18.219Z,99870.63
2022-07-29T16:54:50.936Z,99867.44
2022-07-29T16:57:23.429Z,99870.59
2022-07-29T16:59:55.462Z,99877.55
2022-07-29T17:02:27.818Z,99870.00
2022-07-29T17:05:00.491Z,99869.64
2022-07-29T17:07:34.661Z,99868.04
2022-07-29T17:10:11.558Z,99867.68
2022-07-29T17:12:43.586Z,99878.19
2022-07-29T17:15:17.881Z,99876.66
2022-07-29T17:17:55.361Z,99874.50
2022-07-29T17:20:24.573Z,99882.88
2022-07-29T17:22:56.911Z,99889.54
2022-07-29T17:25:29.767Z,99886.95
2022-07-29T17:28:01.938Z,99891.72
2022-07-29T17:30:34.394Z,99886.72
2022-07-29T17:33:06.803Z,99886.27
2022-07-29T17:35:56.254Z,99880.13
2022-07-29T17:38:28.688Z,99891.38
2022-07-29T17:41:00.966Z,99885.56
2022-07-29T17:43:33.879Z,99889.73
2022-07-29T17:46:08.380Z,99889.06
2022-07-29T17:48:41.495Z,99892.32
2022-07-29T17:51:13.694Z,99892.54
2022-07-29T17:53:46.141Z,99899.45
2022-07-29T17:56:18.563Z,99900.88
2022-07-29T17:58:50.834Z,99908.25
2022-07-29T18:01:23.058Z,99903.22
2022-07-29T18:03:59.789Z,99915.63
2022-07-29T18:06:29.247Z,99920.25
2022-07-29T18:09:01.460Z,99916.88
2022-07-29T18:11:33.641Z,99920.97
2022-07-29T18:14:05.744Z,99917.77
2022-07-29T18:16:38.877Z,99919.31
2022-07-29T18:19:10.909Z,99921.27
2022-07-29T18:21:52.012Z,99921.12
2022-07-29T18:24:16.890Z,99929.00
2022-07-29T18:26:48.967Z,99925.78
2022-07-29T18:29:21.110Z,99919.97
2022-07-29T18:31:53.093Z,99928.30
2022-07-29T18:34:25.163Z,99925.22
2022-07-29T18:36:57.689Z,99925.77
2022-07-29T18:39:30.149Z,99929.15
2022-07-29T18:42:02.333Z,99930.27
2022-07-29T18:44:34.444Z,99935.59
2022-07-29T18:47:08.129Z,99932.22
2022-07-29T18:49:42.111Z,99931.05
2022-07-29T18:52:18.584Z,99931.16
2022-07-29T18:54:50.937Z,99928.49
2022-07-29T18:57:54.707Z,99928.75
2022-07-29T18:59:58.247Z,99933.39
2022-07-29T19:02:30.317Z,99936.19
2022-07-29T19:05:02.404Z,99936.62
2022-07-29T19:07:34.614Z,99933.09
2022-07-29T19:10:07.474Z,99928.33
2022-07-29T19:12:40.804Z,99930.70
2022-07-29T19:15:13.097Z,99934.45
2022-07-29T19:17:48.197Z,99940.07
2022-07-29T19:20:20.433Z,99930.10
2022-07-29T19:22:52.589Z,99935.30
2022-07-29T19:25:24.726Z,99934.14
2022-07-29T19:27:56.763Z,99923.78
2022-07-29T19:30:28.762Z,99922.92
2022-07-29T19:33:02.921Z,99926.58
2022-07-29T19:35:35.156Z,99923.91
2022-07-29T19:38:07.189Z,99919.11
2022-07-29T19:40:42.233Z,99925.03
2022-07-29T19:43:50.504Z,99926.70
2022-07-29T19:45:48.285Z,99925.29
2022-07-29T19:48:20.350Z,99925.29
2022-07-29T19:50:52.345Z,99931.47
2022-07-29T19:53:24.848Z,99928.94
2022-07-29T19:55:56.879Z,99926.97
2022-07-29T19:58:29.052Z,99925.80
2022-07-29T20:01:01.039Z,99931.55
2022-07-29T20:03:33.181Z,99930.01
2022-07-29T20:06:05.342Z,99931.94
2022-07-29T20:08:37.847Z,99930.81
2022-07-29T20:11:10.229Z,99941.17
2022-07-29T20:13:42.282Z,99933.60
2022-07-29T20:16:14.489Z,99933.09
2022-07-29T20:18:46.420Z,99932.79
2022-07-29T20:21:19.068Z,99943.31
2022-07-29T20:23:51.304Z,99939.35
2022-07-29T20:26:24.107Z,99941.06
2022-07-29T20:28:56.285Z,99941.58
2022-07-29T20:31:30.872Z,99955.30
2022-07-29T20:34:03.485Z,99949.44
2022-07-29T20:36:35.701Z,99949.05
2022-07-29T20:39:08.076Z,99946.90
2022-07-29T20:41:40.213Z,99954.44
2022-07-29T20:44:12.659Z,99949.12
2022-07-29T20:46:45.075Z,99954.69
2022-07-29T20:49:17.555Z,99959.12
2022-07-29T20:51:50.303Z,99967.48
2022-07-29T20:54:29.047Z,99971.00
2022-07-29T20:57:02.768Z,99975.34
2022-07-29T20:59:36.128Z,99984.50
2022-07-29T21:02:08.805Z,99980.71
2022-07-29T21:04:43.384Z,99978.05
2022-07-29T21:07:15.529Z,99978.33
2022-07-29T21:09:47.670Z,99979.44
2022-07-29T21:12:19.713Z,99984.88
2022-07-29T21:14:52.237Z,99983.16
2022-07-29T21:17:24.664Z,99992.13
2022-07-29T21:19:57.030Z,99991.67
2022-07-29T21:22:29.133Z,99997.36
2022-07-29T21:25:02.311Z,99990.11
2022-07-29T21:27:52.119Z,100004.52
2022-07-29T21:30:24.414Z,99999.69
2022-07-29T21:32:56.583Z,100002.98
2022-07-29T21:36:02.014Z,100008.78
2022-07-29T21:38:02.839Z,100008.09
2022-07-29T21:40:35.214Z,100017.13
2022-07-29T21:43:07.144Z,100011.46
2022-07-29T21:45:39.255Z,100020.89
2022-07-29T21:48:11.965Z,100015.97
2022-07-29T21:50:44.598Z,100018.75
2022-07-29T21:53:17.602Z,100017.19
2022-07-29T21:55:51.642Z,100024.30
2022-07-29T21:58:25.518Z,100028.88
2022-07-29T22:00:57.694Z,100022.38
2022-07-29T22:03:30.002Z,100028.52
2022-07-29T22:06:01.992Z,100024.42
2022-07-29T22:08:34.555Z,100027.59
2022-07-29T22:11:06.706Z,100034.96
2022-07-29T22:13:38.986Z,100030.23
2022-07-29T22:16:12.614Z,100040.62
2022-07-29T22:18:48.423Z,100041.23
2022-07-29T22:21:20.719Z,100038.92
2022-07-29T22:23:53.094Z,100036.98
2022-07-29T22:26:25.380Z,100037.84
2022-07-29T22:28:57.590Z,100040.02
2022-07-29T22:31:29.886Z,100040.55
2022-07-29T22:34:02.533Z,100049.01
2022-07-29T22:36:34.869Z,100046.80
2022-07-29T22:39:07.276Z,100050.31
2022-07-29T22:41:39.718Z,100052.38
2022-07-29T22:44:12.072Z,100047.17
2022-07-29T22:46:44.459Z,100054.39
2022-07-29T22:49:17.093Z,100057.91
2022-07-29T22:51:49.742Z,100050.39
2022-07-29T22:54:21.930Z,100057.64
2022-07-29T22:56:54.097Z,100052.55
2022-07-29T22:59:26.203Z,100067.23
2022-07-29T23:01:58.203Z,100065.77
2022-07-29T23:04:30.475Z,100067.11
2022-07-29T23:07:02.775Z,100072.96
2022-07-29T23:09:35.195Z,100066.30
2022-07-29T23:12:08.249Z,100071.11
2022-07-29T23:14:40.660Z,100071.58
2022-07-29T23:17:12.891Z,100074.55
2022-07-29T23:19:44.872Z,100068.75
2022-07-29T23:22:17.196Z,100077.99
2022-07-29T23:24:50.665Z,100066.53
2022-07-29T23:27:22.641Z,100068.25
2022-07-29T23:29:55.178Z,100061.23
2022-07-29T23:32:27.065Z,100072.30
2022-07-29T23:34:59.262Z,100077.39
2022-07-29T23:37:33.074Z,100065.81
2022-07-29T23:40:09.680Z,100076.63
2022-07-29T23:42:42.787Z,100066.48
2022-07-29T23:45:15.570Z,100074.55
2022-07-29T23:47:47.661Z,100075.70
2022-07-29T23:50:19.757Z,100067.85
2022-07-29T23:52:51.655Z,100066.06
2022-07-29T23:55:36.479Z,100070.82
2022-07-29T23:57:57.439Z,100069.14
